createdAt,value
2018-06-27T00:01:33.450Z,15.40
2018-06-27T00:04:00.698Z,15.40
2018-06-27T00:06:27.670Z,15.30
2018-06-27T00:08:54.586Z,15.30
2018-06-27T00:11:21.575Z,15.30
2018-06-27T00:13:48.493Z,15.20
2018-06-27T00:16:15.430Z,15.20
2018-06-27T00:18:42.347Z,15.10
2018-06-27T00:21:09.285Z,15.10
2018-06-27T00:23:36.201Z,15.00
2018-06-27T00:26:03.154Z,15.00
2018-06-27T00:28:30.082Z,15.00
2018-06-27T00:30:56.989Z,14.90
2018-06-27T00:33:23.925Z,14.80
2018-06-27T00:35:50.976Z,14.80
2018-06-27T00:38:18.226Z,14.70
2018-06-27T00:40:45.383Z,14.70
2018-06-27T00:43:12.449Z,14.60
2018-06-27T00:45:39.367Z,14.60
2018-06-27T00:48:06.556Z,14.50
2018-06-27T00:50:33.478Z,14.40
2018-06-27T00:53:00.422Z,14.40
2018-06-27T00:55:27.338Z,14.30
2018-06-27T00:57:54.274Z,14.20
2018-06-27T01:00:21.185Z,14.10
2018-06-27T01:02:48.141Z,14.00
2018-06-27T01:05:15.098Z,14.00
2018-06-27T01:07:42.005Z,13.90
2018-06-27T01:10:08.949Z,13.90
2018-06-27T01:12:36.498Z,13.80
2018-06-27T01:15:03.887Z,13.70
2018-06-27T01:17:31.786Z,13.70
2018-06-27T01:19:58.795Z,13.60
2018-06-27T01:22:25.717Z,13.60
2018-06-27T01:24:52.656Z,13.50
2018-06-27T01:27:19.881Z,13.50
2018-06-27T01:29:46.817Z,13.50
2018-06-27T01:32:13.734Z,13.50
2018-06-27T01:37:07.602Z,13.30
2018-06-27T01:39:34.514Z,13.30
2018-06-27T01:42:01.454Z,13.20
2018-06-27T01:44:28.367Z,13.20
2018-06-27T01:46:55.314Z,13.20
2018-06-27T01:49:22.227Z,13.10
2018-06-27T01:51:49.207Z,13.00
2018-06-27T01:54:16.122Z,13.00
2018-06-27T01:56:43.072Z,12.90
2018-06-27T01:59:10.324Z,12.90
2018-06-27T02:01:37.261Z,12.80
2018-06-27T02:04:04.169Z,12.70
2018-06-27T02:06:31.142Z,12.70
2018-06-27T02:08:58.062Z,12.60
2018-06-27T02:11:25.010Z,12.60
2018-06-27T02:13:51.933Z,12.50
2018-06-27T02:16:18.873Z,12.40
2018-06-27T02:18:45.793Z,12.40
2018-06-27T02:21:12.746Z,12.30
2018-06-27T02:26:06.597Z,12.30
2018-06-27T02:28:33.521Z,12.20
2018-06-27T02:31:00.470Z,12.20
2018-06-27T02:33:27.394Z,12.10
2018-06-27T02:35:54.422Z,12.10
2018-06-27T02:38:21.354Z,12.00
2018-06-27T02:40:48.279Z,12.00
2018-06-27T02:43:15.221Z,11.90
2018-06-27T02:45:42.150Z,11.90
2018-06-27T02:48:09.105Z,11.90
2018-06-27T02:50:36.026Z,11.90
2018-06-27T02:53:02.969Z,11.90
2018-06-27T02:55:29.886Z,11.80
2018-06-27T03:00:23.736Z,11.80
2018-06-27T03:02:50.673Z,11.80
2018-06-27T03:05:17.646Z,11.70
2018-06-27T03:07:44.833Z,11.70
2018-06-27T03:10:11.762Z,11.70
2018-06-27T03:12:38.741Z,11.70
2018-06-27T03:15:05.966Z,11.60
2018-06-27T03:17:32.888Z,11.60
2018-06-27T03:20:00.678Z,11.70
2018-06-27T03:22:27.630Z,11.70
2018-06-27T03:24:54.718Z,11.70
2018-06-27T03:27:21.730Z,11.80
2018-06-27T03:29:48.674Z,11.80
2018-06-27T03:32:15.861Z,11.90
2018-06-27T03:34:42.807Z,11.90
2018-06-27T03:37:09.727Z,11.90
2018-06-27T03:39:36.680Z,11.90
2018-06-27T03:42:03.773Z,12.00
2018-06-27T03:44:30.714Z,12.00
2018-06-27T03:46:57.629Z,12.00
2018-06-27T03:49:24.577Z,12.00
2018-06-27T03:51:51.502Z,12.10
2018-06-27T03:54:18.445Z,12.10
2018-06-27T03:56:45.369Z,12.20
2018-06-27T03:59:12.313Z,12.20
2018-06-27T04:01:39.235Z,12.30
2018-06-27T04:04:06.183Z,12.40
2018-06-27T04:06:33.127Z,12.50
2018-06-27T04:09:00.102Z,12.50
2018-06-27T04:11:27.042Z,12.50
2018-06-27T04:13:53.949Z,12.60
2018-06-27T04:16:20.894Z,12.70
2018-06-27T04:18:47.838Z,12.80
2018-06-27T04:21:14.753Z,12.80
2018-06-27T04:23:41.667Z,12.80
2018-06-27T04:26:08.833Z,12.90
2018-06-27T04:28:35.749Z,12.90
2018-06-27T04:31:02.696Z,13.00
2018-06-27T04:33:29.637Z,13.00
2018-06-27T04:35:56.993Z,13.10
2018-06-27T04:38:23.834Z,13.20
2018-06-27T04:40:50.750Z,13.30
2018-06-27T04:43:17.836Z,13.30
2018-06-27T04:45:44.642Z,13.40
2018-06-27T04:48:11.950Z,13.40
2018-06-27T04:50:38.866Z,13.50
2018-06-27T04:53:05.838Z,13.50
2018-06-27T04:55:32.968Z,13.60
2018-06-27T04:58:00.150Z,13.70
2018-06-27T05:00:27.066Z,13.80
2018-06-27T05:02:54.010Z,13.80
2018-06-27T05:05:20.918Z,13.90
2018-06-27T05:07:47.886Z,13.90
2018-06-27T05:10:14.801Z,14.00
2018-06-27T05:12:41.744Z,14.00
2018-06-27T05:15:08.674Z,14.20
2018-06-27T05:17:35.719Z,14.30
2018-06-27T05:20:02.641Z,14.30
2018-06-27T05:22:29.589Z,14.40
2018-06-27T05:24:56.519Z,14.50
2018-06-27T05:27:23.491Z,14.50
2018-06-27T05:29:50.417Z,14.50
2018-06-27T05:32:17.374Z,14.70
2018-06-27T05:34:44.290Z,14.80
2018-06-27T05:37:11.209Z,14.90
2018-06-27T05:39:38.166Z,15.00
2018-06-27T05:42:05.090Z,15.10
2018-06-27T05:44:32.038Z,15.10
2018-06-27T05:46:59.106Z,15.20
2018-06-27T05:49:26.026Z,15.40
2018-06-27T05:54:19.925Z,15.50
2018-06-27T05:56:46.898Z,15.80
2018-06-27T05:59:13.847Z,16.10
2018-06-27T06:01:40.761Z,16.40
2018-06-27T06:04:07.717Z,16.50
2018-06-27T06:06:34.658Z,16.50
2018-06-27T06:09:01.607Z,16.50
2018-06-27T06:11:28.832Z,16.40
2018-06-27T06:13:55.978Z,16.30
2018-06-27T06:16:22.900Z,16.30
2018-06-27T06:18:49.836Z,16.30
2018-06-27T06:21:16.751Z,16.60
2018-06-27T06:23:43.703Z,16.60
2018-06-27T06:26:10.618Z,16.80
2018-06-27T06:28:37.906Z,17.20
2018-06-27T06:31:04.817Z,17.40
2018-06-27T06:35:58.671Z,18.00
2018-06-27T06:38:25.617Z,18.20
2018-06-27T06:40:52.534Z,18.60
2018-06-27T06:43:20.054Z,19.10
2018-06-27T06:45:46.966Z,19.40
2018-06-27T06:48:13.912Z,19.30
2018-06-27T06:50:40.830Z,19.00
2018-06-27T06:53:07.769Z,18.70
2018-06-27T06:55:34.686Z,18.50
2018-06-27T06:58:01.896Z,18.50
2018-06-27T07:00:28.958Z,18.80
2018-06-27T07:02:55.874Z,19.30
2018-06-27T07:05:22.846Z,19.90
2018-06-27T07:07:49.766Z,20.20
2018-06-27T07:10:16.862Z,20.40
2018-06-27T07:12:43.782Z,20.80
2018-06-27T07:15:10.729Z,21.30
2018-06-27T07:17:37.882Z,21.60
2018-06-27T07:20:04.890Z,21.90
2018-06-27T07:22:31.818Z,22.00
2018-06-27T07:24:58.758Z,21.90
2018-06-27T07:27:25.666Z,22.00
2018-06-27T07:29:52.602Z,22.50
2018-06-27T07:32:19.522Z,23.10
2018-06-27T07:34:46.469Z,23.40
2018-06-27T07:37:13.382Z,23.40
2018-06-27T07:39:40.537Z,23.40
2018-06-27T07:42:08.613Z,24.10
2018-06-27T07:47:02.482Z,24.60
2018-06-27T07:49:29.427Z,24.80
2018-06-27T07:51:56.343Z,24.30
2018-06-27T07:54:23.273Z,24.30
2018-06-27T07:56:50.190Z,25.30
2018-06-27T07:59:17.134Z,26.20
2018-06-27T08:01:44.046Z,26.50
2018-06-27T08:04:11.011Z,26.40
2018-06-27T08:06:42.474Z,26.00
2018-06-27T08:09:10.222Z,25.90
2018-06-27T08:11:37.246Z,26.40
2018-06-27T08:14:04.522Z,27.40
2018-06-27T08:16:31.435Z,27.80
2018-06-27T08:18:58.889Z,27.90
2018-06-27T08:21:25.802Z,27.60
2018-06-27T08:23:52.719Z,27.10
2018-06-27T08:26:19.687Z,27.20
2018-06-27T08:28:47.026Z,27.80
2018-06-27T08:31:14.286Z,28.30
2018-06-27T08:33:41.206Z,28.80
2018-06-27T08:36:08.158Z,29.10
2018-06-27T08:38:35.074Z,29.20
2018-06-27T08:41:02.305Z,29.10
2018-06-27T08:43:29.217Z,29.70
2018-06-27T08:45:56.166Z,30.30
2018-06-27T08:48:23.118Z,28.90
2018-06-27T08:50:50.063Z,27.50
2018-06-27T08:53:17.006Z,27.70
2018-06-27T08:55:43.950Z,26.50
2018-06-27T08:58:10.866Z,26.90
2018-06-27T09:00:37.802Z,27.90
2018-06-27T09:03:04.718Z,27.90
2018-06-27T09:05:31.702Z,27.60
2018-06-27T09:07:58.618Z,27.90
2018-06-27T09:10:25.557Z,27.10
2018-06-27T09:12:52.470Z,25.90
2018-06-27T09:15:19.756Z,25.90
2018-06-27T09:17:46.697Z,26.20
2018-06-27T09:20:13.606Z,27.60
2018-06-27T09:22:40.550Z,28.90
2018-06-27T09:25:07.746Z,29.00
2018-06-27T09:27:34.693Z,28.50
2018-06-27T09:30:01.611Z,29.00
2018-06-27T09:32:28.545Z,30.70
2018-06-27T09:34:55.459Z,32.00
2018-06-27T09:37:22.677Z,33.30
2018-06-27T09:39:49.590Z,33.50
2018-06-27T09:42:16.538Z,32.10
2018-06-27T09:44:43.454Z,29.70
2018-06-27T09:47:12.150Z,28.10
2018-06-27T09:49:39.069Z,27.70
2018-06-27T09:52:06.006Z,27.50
2018-06-27T09:54:37.498Z,26.70
2018-06-27T09:57:04.795Z,27.60
2018-06-27T09:59:31.730Z,29.00
2018-06-27T10:01:58.783Z,30.20
2018-06-27T10:04:25.765Z,30.40
2018-06-27T10:06:52.706Z,30.00
2018-06-27T10:09:19.618Z,31.30
2018-06-27T10:11:46.558Z,31.80
2018-06-27T10:14:13.474Z,30.70
2018-06-27T10:16:40.446Z,30.80
2018-06-27T10:19:07.363Z,32.30
2018-06-27T10:24:01.202Z,32.30
2018-06-27T10:26:28.133Z,31.00
2018-06-27T10:28:55.338Z,30.70
2018-06-27T10:31:22.277Z,29.10
2018-06-27T10:33:49.194Z,28.20
2018-06-27T10:36:16.207Z,27.70
2018-06-27T10:38:43.151Z,26.80
2018-06-27T10:41:10.090Z,26.30
2018-06-27T10:43:37.311Z,27.50
2018-06-27T10:46:04.474Z,29.50
2018-06-27T10:48:31.390Z,31.30
2018-06-27T10:50:58.327Z,32.00
2018-06-27T10:53:25.251Z,33.10
2018-06-27T10:55:52.193Z,33.90
2018-06-27T10:58:19.102Z,33.80
2018-06-27T11:00:46.047Z,35.10
2018-06-27T11:03:12.957Z,33.60
2018-06-27T11:05:39.986Z,30.00
2018-06-27T11:08:06.906Z,27.90
2018-06-27T11:13:00.751Z,27.00
2018-06-27T11:15:27.722Z,27.70
2018-06-27T11:17:54.645Z,28.60
2018-06-27T11:20:21.662Z,28.90
2018-06-27T11:22:48.578Z,29.40
2018-06-27T11:25:15.494Z,29.80
2018-06-27T11:27:42.433Z,29.50
2018-06-27T11:30:09.346Z,29.00
2018-06-27T11:32:36.290Z,29.80
2018-06-27T11:35:03.214Z,32.20
2018-06-27T11:37:30.154Z,33.10
2018-06-27T11:39:57.094Z,32.40
2018-06-27T11:42:24.034Z,33.10
2018-06-27T11:44:50.954Z,33.60
2018-06-27T11:47:17.898Z,34.40
2018-06-27T11:49:44.819Z,34.50
2018-06-27T11:52:12.098Z,33.70
2018-06-27T11:54:40.067Z,33.10
2018-06-27T11:57:06.995Z,31.90
2018-06-27T11:59:33.937Z,31.30
2018-06-27T12:02:00.854Z,30.10
2018-06-27T12:04:27.826Z,29.20
2018-06-27T12:06:54.742Z,28.90
2018-06-27T12:09:21.677Z,28.80
2018-06-27T12:11:48.868Z,28.90
2018-06-27T12:14:15.810Z,30.10
2018-06-27T12:16:42.721Z,32.20
2018-06-27T12:19:09.662Z,33.00
2018-06-27T12:21:36.577Z,34.40
2018-06-27T12:24:03.798Z,35.10
2018-06-27T12:26:30.739Z,34.50
2018-06-27T12:28:57.690Z,33.60
2018-06-27T12:31:24.618Z,32.60
2018-06-27T12:33:51.566Z,31.00
2018-06-27T12:36:18.517Z,29.80
2018-06-27T12:38:45.498Z,28.90
2018-06-27T12:41:12.405Z,30.20
2018-06-27T12:43:39.346Z,31.90
2018-06-27T12:46:06.343Z,33.40
2018-06-27T12:48:33.300Z,33.50
2018-06-27T12:51:00.329Z,33.40
2018-06-27T12:53:27.282Z,33.20
2018-06-27T12:55:54.202Z,32.90
2018-06-27T12:58:21.294Z,33.10
2018-06-27T13:00:48.216Z,31.90
2018-06-27T13:03:15.155Z,30.70
2018-06-27T13:05:42.426Z,29.80
2018-06-27T13:08:09.365Z,29.90
2018-06-27T13:10:36.587Z,30.10
2018-06-27T13:13:03.758Z,30.10
2018-06-27T13:15:30.698Z,31.70
2018-06-27T13:17:57.621Z,31.80
2018-06-27T13:20:24.838Z,31.30
2018-06-27T13:22:51.751Z,30.90
2018-06-27T13:25:18.689Z,30.10
2018-06-27T13:27:45.602Z,30.10
2018-06-27T13:30:12.542Z,30.40
2018-06-27T13:32:39.490Z,29.00
2018-06-27T13:35:06.398Z,28.40
2018-06-27T13:37:33.341Z,28.00
2018-06-27T13:40:00.253Z,27.60
2018-06-27T13:42:27.194Z,27.50
2018-06-27T13:44:54.178Z,27.90
2018-06-27T13:47:21.115Z,27.70
2018-06-27T13:49:48.264Z,28.70
2018-06-27T13:52:15.211Z,31.00
2018-06-27T13:54:47.694Z,32.00
2018-06-27T13:57:14.646Z,30.70
2018-06-27T13:59:41.564Z,30.00
2018-06-27T14:02:08.510Z,29.20
2018-06-27T14:04:35.450Z,27.80
2018-06-27T14:07:02.394Z,26.70
2018-06-27T14:09:29.309Z,25.70
2018-06-27T14:11:56.250Z,25.30
2018-06-27T14:14:23.168Z,25.00
2018-06-27T14:16:50.410Z,24.70
2018-06-27T14:19:17.352Z,24.80
2018-06-27T14:21:44.259Z,24.70
2018-06-27T14:24:11.282Z,24.60
2018-06-27T14:26:38.174Z,24.80
2018-06-27T14:29:05.124Z,25.10
2018-06-27T14:31:32.390Z,24.80
2018-06-27T14:33:59.334Z,25.00
2018-06-27T14:36:26.259Z,26.10
2018-06-27T14:38:53.206Z,26.80
2018-06-27T14:41:20.126Z,26.80
2018-06-27T14:43:47.113Z,26.50
2018-06-27T14:46:14.062Z,25.90
2018-06-27T14:48:40.977Z,25.70
2018-06-27T14:51:07.886Z,25.90
2018-06-27T14:56:01.786Z,25.30
2018-06-27T14:58:28.722Z,25.20
2018-06-27T15:00:55.642Z,25.10
2018-06-27T15:03:22.617Z,25.00
2018-06-27T15:05:49.558Z,24.90
2018-06-27T15:08:16.507Z,25.10
2018-06-27T15:10:43.451Z,25.10
2018-06-27T15:13:10.422Z,24.70
2018-06-27T15:15:37.346Z,24.60
2018-06-27T15:18:04.262Z,25.80
2018-06-27T15:20:31.240Z,26.60
2018-06-27T15:22:58.350Z,26.80
2018-06-27T15:25:25.535Z,26.70
2018-06-27T15:27:52.458Z,26.50
2018-06-27T15:30:19.407Z,26.10
2018-06-27T15:32:46.322Z,25.40
2018-06-27T15:35:13.315Z,25.10
2018-06-27T15:37:40.201Z,25.10
2018-06-27T15:40:07.142Z,25.00
2018-06-27T15:42:34.217Z,25.60
2018-06-27T15:45:01.170Z,27.10
2018-06-27T15:47:28.090Z,28.10
2018-06-27T15:49:55.002Z,28.80
2018-06-27T15:52:21.950Z,29.60
2018-06-27T15:54:48.870Z,30.00
2018-06-27T15:57:15.930Z,30.00
2018-06-27T15:59:45.710Z,29.50
2018-06-27T16:02:12.653Z,29.70
2018-06-27T16:04:39.591Z,29.00
2018-06-27T16:07:06.534Z,28.70
2018-06-27T16:09:33.450Z,28.00
2018-06-27T16:12:00.678Z,27.00
2018-06-27T16:16:54.593Z,25.60
2018-06-27T16:19:21.509Z,25.30
2018-06-27T16:21:48.678Z,24.90
2018-06-27T16:24:15.630Z,24.70
2018-06-27T16:26:42.575Z,24.60
2018-06-27T16:29:09.922Z,24.50
2018-06-27T16:31:36.866Z,24.40
2018-06-27T16:34:03.838Z,24.40
2018-06-27T16:36:30.819Z,24.10
2018-06-27T16:38:57.737Z,24.10
2018-06-27T16:41:24.683Z,24.00
2018-06-27T16:43:51.655Z,24.00
2018-06-27T16:46:18.640Z,23.90
2018-06-27T16:48:45.522Z,24.00
2018-06-27T16:51:12.746Z,24.20
2018-06-27T16:53:39.658Z,24.40
2018-06-27T16:56:06.834Z,24.60
2018-06-27T16:58:33.774Z,24.80
2018-06-27T17:01:01.267Z,24.90
2018-06-27T17:03:28.111Z,25.00
2018-06-27T17:05:55.052Z,25.00
2018-06-27T17:08:22.002Z,25.00
2018-06-27T17:10:49.481Z,24.70
2018-06-27T17:13:16.398Z,24.30
2018-06-27T17:15:43.322Z,23.60
2018-06-27T17:18:10.458Z,23.40
2018-06-27T17:20:37.382Z,23.20
2018-06-27T17:23:04.654Z,22.90
2018-06-27T17:25:31.574Z,22.50
2018-06-27T17:27:58.515Z,22.30
2018-06-27T17:30:25.430Z,22.10
2018-06-27T17:32:52.370Z,22.00
2018-06-27T17:35:19.274Z,22.00
2018-06-27T17:37:46.222Z,22.00
2018-06-27T17:40:13.138Z,22.10
2018-06-27T17:42:40.327Z,22.30
2018-06-27T17:45:07.295Z,22.40
2018-06-27T17:50:01.331Z,22.60
2018-06-27T17:52:28.570Z,22.60
2018-06-27T17:54:55.487Z,22.50
2018-06-27T17:57:22.430Z,22.40
2018-06-27T17:59:49.346Z,22.40
2018-06-27T18:02:16.285Z,22.50
2018-06-27T18:04:43.239Z,22.60
2018-06-27T18:07:10.506Z,22.60
2018-06-27T18:09:37.435Z,22.60
2018-06-27T18:12:04.383Z,22.30
2018-06-27T18:14:31.293Z,22.10
2018-06-27T18:16:58.235Z,21.80
2018-06-27T18:19:25.158Z,21.60
2018-06-27T18:21:52.103Z,21.50
2018-06-27T18:24:19.062Z,21.40
2018-06-27T18:26:46.050Z,21.30
2018-06-27T18:29:12.975Z,21.20
2018-06-27T18:31:39.917Z,21.10
2018-06-27T18:34:06.876Z,21.00
2018-06-27T18:36:33.866Z,20.90
2018-06-27T18:39:00.785Z,20.90
2018-06-27T18:41:27.702Z,20.80
2018-06-27T18:43:54.646Z,20.70
2018-06-27T18:46:21.887Z,20.60
2018-06-27T18:48:48.834Z,20.50
2018-06-27T18:51:15.753Z,20.40
2018-06-27T18:53:42.706Z,20.30
2018-06-27T18:56:09.619Z,20.20
2018-06-27T18:58:36.874Z,20.10
2018-06-27T19:01:03.777Z,20.00
2018-06-27T19:03:30.718Z,19.90
2018-06-27T19:05:57.674Z,19.80
2018-06-27T19:08:24.670Z,19.70
2018-06-27T19:10:51.795Z,19.60
2018-06-27T19:13:18.738Z,19.50
2018-06-27T19:15:45.650Z,19.40
2018-06-27T19:18:12.586Z,19.30
2018-06-27T19:20:39.501Z,19.30
2018-06-27T19:23:06.738Z,19.10
2018-06-27T19:25:33.654Z,19.00
2018-06-27T19:28:00.599Z,18.80
2018-06-27T19:30:27.587Z,18.70
2018-06-27T19:32:54.530Z,18.60
2018-06-27T19:35:21.448Z,18.50
2018-06-27T19:37:48.629Z,18.40
2018-06-27T19:40:15.546Z,18.30
2018-06-27T19:42:42.482Z,18.20
2018-06-27T19:45:09.397Z,18.10
2018-06-27T19:47:36.354Z,18.00
2018-06-27T19:50:03.379Z,17.90
2018-06-27T19:52:30.347Z,17.80
2018-06-27T19:54:57.286Z,17.70
2018-06-27T19:57:24.229Z,17.50
2018-06-27T19:59:51.154Z,17.40
2018-06-27T20:02:18.116Z,17.30
2018-06-27T20:04:45.314Z,17.20
2018-06-27T20:09:39.660Z,17.00
2018-06-27T20:12:06.546Z,17.00
2018-06-27T20:14:33.472Z,16.90
2018-06-27T20:17:00.423Z,16.90
2018-06-27T20:19:27.406Z,16.80
2018-06-27T20:21:54.417Z,16.80
2018-06-27T20:24:21.301Z,16.70
2018-06-27T20:26:48.250Z,16.70
2018-06-27T20:29:15.179Z,16.60
2018-06-27T20:31:42.132Z,16.60
2018-06-27T20:34:09.345Z,16.60
2018-06-27T20:36:36.532Z,16.50
2018-06-27T20:39:05.753Z,16.50
2018-06-27T20:41:32.694Z,16.40
2018-06-27T20:43:59.607Z,16.40
2018-06-27T20:46:26.555Z,16.30
2018-06-27T20:48:53.785Z,16.30
2018-06-27T20:51:20.774Z,16.30
2018-06-27T20:53:47.914Z,16.20
2018-06-27T20:56:14.878Z,16.20
2018-06-27T20:58:41.818Z,16.20
2018-06-27T21:01:08.789Z,16.10
2018-06-27T21:03:35.717Z,16.10
2018-06-27T21:06:02.666Z,16.00
2018-06-27T21:08:29.617Z,16.00
2018-06-27T21:10:56.529Z,15.90
2018-06-27T21:13:23.474Z,15.90
2018-06-27T21:15:50.384Z,15.80
2018-06-27T21:18:17.494Z,15.80
2018-06-27T21:20:44.415Z,15.80
2018-06-27T21:23:11.355Z,15.70
2018-06-27T21:25:38.270Z,15.60
2018-06-27T21:28:05.241Z,15.60
2018-06-27T21:30:32.154Z,15.50
2018-06-27T21:32:59.262Z,15.50
2018-06-27T21:35:26.286Z,15.50
2018-06-27T21:37:53.455Z,15.50
2018-06-27T21:40:20.398Z,15.50
2018-06-27T21:42:47.309Z,15.40
2018-06-27T21:45:14.306Z,15.40
2018-06-27T21:47:41.234Z,15.40
2018-06-27T21:50:08.178Z,15.30
2018-06-27T21:52:35.094Z,15.30
2018-06-27T21:55:02.127Z,15.30
2018-06-27T21:57:29.053Z,15.30
2018-06-27T22:02:22.905Z,15.30
2018-06-27T22:04:49.850Z,15.30
2018-06-27T22:07:16.815Z,15.20
2018-06-27T22:09:43.758Z,15.10
2018-06-27T22:12:10.790Z,15.00
2018-06-27T22:14:37.730Z,15.00
2018-06-27T22:17:04.658Z,15.00
2018-06-27T22:19:31.842Z,15.00
2018-06-27T22:21:58.762Z,15.00
2018-06-27T22:24:25.683Z,15.00
2018-06-27T22:26:52.697Z,14.90
2018-06-27T22:29:19.623Z,15.00
2018-06-27T22:31:46.563Z,14.90
2018-06-27T22:34:13.510Z,14.90
2018-06-27T22:36:40.458Z,14.90
2018-06-27T22:39:07.809Z,14.90
2018-06-27T22:41:34.757Z,14.90
2018-06-27T22:44:01.682Z,14.90
2018-06-27T22:46:28.626Z,14.80
2018-06-27T22:48:55.537Z,14.80
2018-06-27T22:51:22.472Z,14.80
2018-06-27T22:53:49.395Z,14.80
2018-06-27T22:56:16.337Z,14.80
2018-06-27T22:58:43.258Z,14.80
2018-06-27T23:01:10.208Z,14.80
2018-06-27T23:03:37.351Z,14.80
2018-06-27T23:06:04.319Z,14.90
2018-06-27T23:08:31.310Z,14.90
2018-06-27T23:10:58.722Z,14.90
2018-06-27T23:13:25.642Z,14.90
2018-06-27T23:15:52.559Z,14.90
2018-06-27T23:18:19.499Z,14.90
2018-06-27T23:20:46.423Z,14.90
2018-06-27T23:23:13.366Z,14.90
2018-06-27T23:25:40.275Z,14.90
2018-06-27T23:28:07.210Z,14.90
2018-06-27T23:30:34.130Z,14.80
2018-06-27T23:33:01.070Z,14.80
2018-06-27T23:35:27.988Z,14.90
2018-06-27T23:37:54.926Z,14.80
2018-06-27T23:40:21.846Z,14.80
2018-06-27T23:42:48.850Z,14.70
2018-06-27T23:45:15.770Z,14.70
2018-06-27T23:47:42.701Z,14.60
2018-06-27T23:50:09.623Z,14.60
2018-06-27T23:52:36.570Z,14.60
2018-06-27T23:55:03.741Z,14.60
2018-06-27T23:57:30.682Z,14.60
2018-06-27T23:59:57.599Z,14.60
